createdAt,value
2019-03-09T16:20:59.423Z,13.54
2019-03-09T16:22:00.916Z,13.59
2019-03-09T16:23:06.872Z,13.66
2019-03-09T16:24:08.522Z,13.62
2019-03-09T16:25:07.418Z,13.62
2019-03-09T16:26:07.024Z,13.63
2019-03-09T16:27:05.708Z,13.62
2019-03-09T16:29:21.549Z,13.66
2019-03-09T16:30:21.251Z,13.57
2019-03-09T16:31:19.912Z,13.62
2019-03-09T16:32:22.246Z,13.69
2019-03-09T16:35:27.198Z,13.63
2019-03-09T16:36:28.784Z,13.64
2019-03-09T16:37:27.565Z,13.71
2019-03-09T16:38:28.030Z,13.75
2019-03-09T16:39:44.228Z,13.69
2019-03-09T16:40:45.619Z,13.67
2019-03-09T16:41:44.186Z,13.71
2019-03-09T16:42:42.801Z,13.78
2019-03-09T16:43:48.140Z,13.77
2019-03-09T16:44:48.164Z,13.79
2019-03-09T16:45:50.659Z,13.79
2019-03-09T16:46:51.683Z,13.79
2019-03-09T16:47:51.655Z,13.75
2019-03-09T16:49:18.703Z,13.79
2019-03-09T16:50:18.551Z,13.82
2019-03-09T16:51:18.115Z,13.77
2019-03-09T16:52:16.728Z,13.79
2019-03-09T16:53:18.320Z,13.84
2019-03-09T16:55:35.307Z,13.82
2019-03-09T16:57:52.050Z,13.77
2019-03-09T16:59:53.660Z,13.69
2019-03-09T17:00:52.286Z,13.69
2019-03-09T17:02:29.290Z,13.75
2019-03-09T17:06:09.455Z,13.67
2019-03-09T17:07:08.038Z,13.79
2019-03-09T17:08:06.621Z,13.67
2019-03-09T17:09:05.773Z,13.69
2019-03-09T17:10:46.772Z,13.67
2019-03-09T17:11:54.224Z,13.64
2019-03-09T17:14:18.405Z,13.62
2019-03-09T17:15:17.066Z,13.59
2019-03-09T17:16:17.109Z,13.66
2019-03-09T17:17:16.323Z,13.62
2019-03-09T17:18:16.582Z,13.69
2019-03-09T17:19:17.785Z,13.63
2019-03-09T17:21:15.427Z,13.52
2019-03-09T17:22:14.928Z,13.59
2019-03-09T17:23:14.699Z,13.55
2019-03-09T17:24:58.263Z,13.57
2019-03-09T17:25:56.845Z,13.55
2019-03-09T17:27:56.785Z,13.51
2019-03-09T17:28:55.982Z,13.49
2019-03-09T17:30:56.602Z,13.44
2019-03-09T17:33:37.608Z,13.39
2019-03-09T18:01:56.452Z,13.55
2019-03-09T18:03:58.240Z,13.57
2019-03-09T18:04:56.826Z,13.57
2019-03-09T18:05:55.455Z,13.55
2019-03-09T18:07:56.064Z,13.62
2019-03-09T18:12:19.158Z,13.6
2019-03-09T18:13:19.692Z,13.54
2019-03-09T18:16:00.863Z,13.54
2019-03-09T18:18:06.711Z,13.59
2019-03-09T18:19:55.661Z,13.54
2019-03-09T18:22:34.073Z,13.6
2019-03-09T18:25:31.808Z,13.6
2019-03-09T18:26:31.889Z,13.71
2019-03-09T18:27:33.970Z,13.69
2019-03-09T18:28:32.652Z,13.59
2019-03-09T18:32:02.228Z,13.64
2019-03-09T18:33:24.463Z,13.62
2019-03-09T18:34:24.475Z,13.6
2019-03-09T18:35:23.564Z,13.59
2019-03-09T18:36:48.783Z,13.63
2019-03-09T18:38:24.754Z,13.6
2019-03-09T18:40:37.455Z,13.63
2019-03-09T18:41:38.693Z,13.51
2019-03-09T18:42:37.636Z,13.55
2019-03-09T18:45:05.689Z,13.6
2019-03-09T18:46:07.246Z,13.55
2019-03-09T18:47:09.082Z,13.55
2019-03-09T18:48:08.721Z,13.55
2019-03-09T18:50:45.691Z,13.52
2019-03-09T18:51:46.706Z,13.52
2019-03-09T18:53:37.315Z,13.6
2019-03-09T18:54:37.279Z,13.59
2019-03-09T18:55:37.213Z,13.57
2019-03-09T18:59:35.516Z,13.55
2019-03-09T19:00:34.241Z,13.59
2019-03-09T19:05:58.605Z,13.55
2019-03-09T19:08:39.070Z,13.52
2019-03-09T19:09:37.726Z,13.55
2019-03-09T19:13:36.195Z,13.52
2019-03-09T19:15:34.108Z,13.63
2019-03-09T19:20:16.622Z,13.6
2019-03-09T19:21:15.825Z,13.59
2019-03-09T19:22:14.468Z,13.42
2019-03-09T19:23:13.105Z,13.6
2019-03-09T19:24:11.982Z,13.62
2019-03-09T19:25:10.510Z,13.55
2019-03-09T19:26:09.199Z,13.57
2019-03-09T19:28:53.511Z,13.59
2019-03-09T19:32:32.983Z,13.54
2019-03-09T19:33:31.644Z,13.59
2019-03-09T19:34:30.236Z,13.57
2019-03-09T19:35:29.704Z,13.59
2019-03-09T19:36:28.458Z,13.57
2019-03-09T19:37:27.033Z,13.6
2019-03-09T19:38:25.690Z,13.62
2019-03-09T19:41:05.938Z,13.54
2019-03-09T19:42:04.533Z,13.52
2019-03-09T19:44:44.645Z,13.6
2019-03-09T19:45:43.304Z,13.55
2019-03-09T19:46:42.510Z,13.44
2019-03-09T19:47:41.398Z,13.59
2019-03-09T20:13:16.972Z,13.67
2019-03-09T20:14:15.657Z,13.69
2019-03-09T20:15:14.236Z,13.67
2019-03-09T20:16:12.896Z,13.77
2019-03-09T20:17:11.535Z,13.79
2019-03-09T20:18:10.355Z,13.78
2019-03-09T20:19:09.012Z,13.69
2019-03-09T20:20:07.748Z,13.71
2019-03-09T20:21:06.374Z,13.78
2019-03-09T20:22:05.061Z,13.77
2019-03-09T20:23:04.029Z,13.84
2019-03-09T20:24:02.661Z,13.81
2019-03-09T20:25:02.149Z,13.77
2019-03-09T20:26:00.772Z,13.81
2019-03-09T20:26:59.403Z,13.79
2019-03-09T20:27:58.729Z,13.88
2019-03-09T20:30:38.830Z,13.84
2019-03-09T20:31:37.549Z,13.81
2019-03-09T20:32:36.232Z,13.84
2019-03-09T20:33:34.892Z,13.89
2019-03-09T20:34:33.466Z,13.79
2019-03-09T20:35:32.433Z,13.77
2019-03-09T20:36:31.465Z,13.75
2019-03-09T20:37:30.196Z,13.84
2019-03-09T20:38:29.199Z,13.78
2019-03-09T20:42:08.527Z,13.79
2019-03-09T20:43:07.805Z,13.66
2019-03-09T20:44:06.454Z,13.79
2019-03-09T20:45:05.149Z,13.79
2019-03-09T20:46:04.493Z,13.81
2019-03-09T20:47:03.113Z,13.77
2019-03-09T20:48:02.560Z,13.78
2019-03-09T20:49:02.023Z,13.78
2019-03-09T20:50:00.635Z,13.88
2019-03-09T20:52:40.976Z,13.84
2019-03-09T20:53:40.095Z,13.79
2019-03-09T20:54:38.703Z,13.88
2019-03-09T20:55:37.865Z,13.89
2019-03-09T20:56:36.496Z,13.85
2019-03-09T20:57:35.105Z,13.82
2019-03-09T20:58:34.014Z,13.73
2019-03-09T20:59:32.573Z,13.85
2019-03-09T21:00:31.250Z,13.85
2019-03-09T21:01:29.852Z,13.85
2019-03-09T21:02:28.458Z,14.02
2019-03-09T21:03:27.116Z,13.96
2019-03-09T21:04:26.150Z,13.88
2019-03-09T21:05:24.747Z,13.84
2019-03-09T21:06:23.324Z,14.04
2019-03-09T21:07:22.023Z,14
2019-03-09T21:08:20.655Z,14.03
2019-03-09T21:09:19.261Z,13.96
2019-03-09T21:11:44.199Z,14.02
2019-03-09T21:12:42.897Z,13.99
2019-03-09T21:21:16.759Z,14.1
2019-03-09T21:22:15.340Z,14.14
2019-03-09T21:23:15.251Z,14.09
2019-03-09T21:24:14.449Z,14.18
2019-03-09T21:25:13.980Z,14.17
2019-03-09T21:26:12.692Z,14.1
2019-03-09T21:27:11.535Z,14.12
2019-03-09T21:28:10.357Z,14.15
2019-03-09T21:29:08.982Z,14.1
2019-03-09T21:30:08.060Z,13.99
2019-03-09T21:31:06.749Z,13.99
2019-03-09T21:32:05.656Z,14.04
2019-03-09T21:33:04.409Z,14.04
2019-03-09T21:34:03.030Z,14.07
2019-03-09T21:35:01.878Z,13.97
2019-03-09T21:36:01.247Z,13.96
2019-03-09T21:37:00.416Z,13.96
2019-03-09T21:39:41.167Z,13.91
2019-03-09T21:40:40.234Z,13.87
2019-03-09T21:44:02.724Z,13.95
2019-03-09T21:49:55.229Z,13.99
2019-03-09T21:50:53.823Z,13.88
2019-03-09T21:53:34.266Z,13.95
2019-03-09T21:54:32.892Z,13.95
2019-03-09T21:55:31.587Z,13.89
2019-03-09T21:56:30.205Z,13.82
2019-03-09T21:57:28.743Z,13.85
2019-03-09T21:58:27.356Z,13.85
2019-03-09T21:59:25.940Z,13.95
2019-03-09T22:00:24.519Z,13.96
2019-03-09T22:01:23.278Z,13.91
2019-03-09T22:02:22.358Z,13.89
2019-03-09T22:03:21.028Z,13.88
2019-03-09T22:04:19.710Z,13.96
2019-03-09T22:05:18.411Z,14.02
2019-03-09T22:06:17.236Z,13.97
2019-03-09T22:07:15.946Z,13.97
2019-03-09T22:08:14.734Z,13.99
2019-03-09T22:12:10.403Z,13.92
2019-03-09T22:13:09.017Z,14.07
2019-03-09T22:14:07.807Z,14.02
2019-03-09T22:15:06.692Z,13.99
2019-03-09T22:16:05.867Z,13.89
2019-03-09T22:17:04.617Z,13.97
2019-03-09T22:19:44.649Z,14.07
2019-03-09T22:20:43.296Z,14
2019-03-09T22:21:41.935Z,14
2019-03-09T22:22:40.531Z,14.02
2019-03-09T22:23:43.912Z,13.99
2019-03-09T22:24:38.409Z,14.06
2019-03-09T22:25:37.003Z,14.02
2019-03-09T22:26:36.184Z,14
2019-03-09T22:27:34.800Z,14.06
2019-03-09T22:28:33.490Z,14
2019-03-09T22:29:33.083Z,13.99
2019-03-09T22:30:31.640Z,14.03
2019-03-09T22:31:30.488Z,14
2019-03-09T22:44:30.997Z,13.97
2019-03-09T22:45:29.812Z,13.99
2019-03-09T22:46:28.596Z,13.96
2019-03-09T22:47:27.772Z,13.92
2019-03-09T22:48:26.447Z,14.04
2019-03-09T22:49:24.987Z,14.06
2019-03-09T22:50:23.492Z,14.03
2019-03-09T22:51:24.236Z,14
2019-03-09T22:52:22.901Z,14.02
2019-03-09T22:53:21.667Z,13.96
2019-03-09T22:54:20.330Z,13.99
2019-03-09T22:55:18.911Z,14.06
2019-03-09T22:56:17.512Z,14.03
2019-03-09T22:58:58.162Z,14.07
2019-03-09T22:59:56.950Z,14.15
2019-03-09T23:00:55.525Z,14.15
2019-03-09T23:01:54.302Z,14.15
2019-03-09T23:02:52.905Z,14.1
2019-03-09T23:03:51.708Z,14.15
2019-03-09T23:04:50.312Z,14.18
2019-03-09T23:05:48.854Z,14.1
2019-03-09T23:08:35.171Z,14.14
2019-03-09T23:09:34.088Z,14.15
2019-03-09T23:10:33.254Z,14.21
2019-03-09T23:11:32.170Z,14.24
2019-03-09T23:36:59.306Z,13.97
2019-03-09T23:37:58.024Z,14.04
2019-03-09T23:38:56.610Z,14.03
2019-03-09T23:39:55.183Z,14
2019-03-09T23:40:53.839Z,14.04
2019-03-09T23:41:52.456Z,14.15
2019-03-09T23:42:51.031Z,14.22
2019-03-09T23:43:49.805Z,14.14
2019-03-09T23:44:48.358Z,14.14
2019-03-09T23:45:46.992Z,14.1
2019-03-09T23:46:45.706Z,14.09
2019-03-09T23:47:44.271Z,14.15
2019-03-09T23:48:42.859Z,14.02
2019-03-09T23:49:41.614Z,14.15
2019-03-09T23:50:40.386Z,14.17
2019-03-09T23:51:38.971Z,14.15
2019-03-09T23:52:37.541Z,14.02
2019-03-09T23:53:36.267Z,14.1
2019-03-09T23:54:34.892Z,14.09
2019-03-09T23:55:33.543Z,14.02
2019-03-09T23:56:32.255Z,14.06
2019-03-09T23:59:12.693Z,14.06
